Terminal Aerodrome Forecast
Issued by NWS Cleveland, OH

Home | Current Version | Previous Version | Text Only | Print | Product List | Glossary On
Versions: 1 2 3 4 5 6 7 8 9 10 11 12 13 14 15 16 17 18
878
FTUS41 KCLE 281130
TAFERI
TAF
KERI 281130Z 2812/2912 20005KT P6SM SCT060 BKN200
     FM281800 28009KT P6SM SCT040 BKN200
     FM290300 34004KT P6SM FEW040 BKN150
     FM290900 03004KT P6SM SCT040=

USA.gov is the U.S. government's official web portal to all federal, state and local government web resources and services.